Time;durP1;ratioP1;P1;durP2;ratioP2;P2;SDS_P1;SDS_P2;PMS_P1;PMS_P2;Temp;Humidity;BMP_temperature;BMP_pressure;BME280_temperature;BME280_humidity;BME280_pressure;Samples;Min_cycle;Max_cycle;Signal;HPM_P1;HPM_P2
2021/05/14 00:02:22;;;;;;;4.97;1.90;;;;;;;18.80;56.01;100844.47;1764094;80;21023;-51
2021/05/14 00:04:49;;;;;;;2.58;1.90;;;;;;;18.79;56.05;100831.78;1771415;79;21068;-49
2021/05/14 00:07:18;;;;;;;3.35;1.70;;;;;;;18.82;55.95;100817.09;1783741;79;21555;-49
2021/05/14 00:09:44;;;;;;;4.20;1.80;;;;;;;18.84;55.79;100807.31;1767102;80;21515;-50
2021/05/14 00:12:12;;;;;;;2.85;1.60;;;;;;;18.85;55.70;100810.34;1768421;80;21622;-50
2021/05/14 00:14:38;;;;;;;2.12;1.45;;;;;;;18.87;55.70;100809.80;1767560;80;21092;-50
2021/05/14 00:17:05;;;;;;;3.47;1.98;;;;;;;18.87;55.70;100813.75;1768349;79;21067;-49
2021/05/14 00:19:32;;;;;;;1.77;1.57;;;;;;;18.88;55.80;100825.98;1776937;79;21037;-50
2021/05/14 00:21:58;;;;;;;2.85;1.98;;;;;;;18.91;55.99;100833.74;1786605;79;20988;-50
2021/05/14 00:24:25;;;;;;;2.55;1.90;;;;;;;18.92;56.11;100826.20;1732421;82;21121;-49
2021/05/14 00:26:52;;;;;;;4.17;1.90;;;;;;;18.94;56.24;100824.82;1784139;79;21024;-50
2021/05/14 00:29:20;;;;;;;3.17;1.70;;;;;;;18.94;56.29;100833.55;1738406;80;21032;-49
2021/05/14 00:31:46;;;;;;;2.87;1.98;;;;;;;18.94;56.48;100830.92;1743417;81;21073;-50
2021/05/14 00:34:13;;;;;;;4.45;1.62;;;;;;;18.94;56.66;100829.60;1748303;81;21131;-50
2021/05/14 00:36:40;;;;;;;3.20;1.60;;;;;;;18.94;56.70;100823.01;1770200;80;21543;-49
2021/05/14 00:39:07;;;;;;;3.08;1.70;;;;;;;18.98;56.64;100819.76;1765279;80;21099;-49
2021/05/14 00:41:34;;;;;;;6.83;2.50;;;;;;;18.98;56.62;100824.54;1760077;80;21088;-51
2021/05/14 00:44:29;;;;;;;3.85;1.72;;;;;;;19.01;56.70;100820.89;1772292;79;21047;-51
2021/05/14 00:46:59;;;;;;;3.17;1.95;;;;;;;19.02;56.74;100812.89;1734249;82;21587;-49
2021/05/14 00:49:28;;;;;;;5.33;1.67;;;;;;;19.02;56.81;100808.92;1711234;82;21118;-50
2021/05/14 00:51:58;;;;;;;5.87;1.80;;;;;;;18.95;56.99;100783.00;1778752;79;21016;-49
2021/05/14 00:54:30;;;;;;;2.35;1.62;;;;;;;18.93;57.04;100780.91;1776630;79;21633;-49
2021/05/14 00:56:58;;;;;;;4.58;1.67;;;;;;;19.02;56.88;100788.33;1717252;82;21176;-49
2021/05/14 00:59:26;;;;;;;5.78;2.30;;;;;;;19.06;56.76;100793.31;1716661;82;21669;-50
2021/05/14 01:01:52;;;;;;;3.35;1.42;;;;;;;19.09;56.64;100790.98;1711992;82;21148;-50
2021/05/14 01:04:19;;;;;;;3.75;1.70;;;;;;;19.12;56.53;100785.09;1701028;81;21036;-50
2021/05/14 01:06:47;;;;;;;3.90;1.80;;;;;;;19.06;56.68;100780.13;1729829;82;21128;-49
2021/05/14 01:09:14;;;;;;;11.15;1.98;;;;;;;19.13;56.57;100772.73;1705094;82;21061;-50
2021/05/14 01:11:41;;;;;;;3.80;1.75;;;;;;;19.13;56.61;100760.39;1719837;82;21033;-49
2021/05/14 01:14:09;;;;;;;5.25;1.30;;;;;;;19.15;56.69;100750.61;1710923;82;21104;-50
2021/05/14 01:16:36;;;;;;;3.00;1.20;;;;;;;19.17;56.70;100748.73;1701793;82;21073;-49
2021/05/14 01:19:03;;;;;;;2.85;1.90;;;;;;;19.19;56.65;100740.27;1704922;82;21049;-50
2021/05/14 01:21:30;;;;;;;2.47;1.22;;;;;;;19.22;56.57;100732.19;1708637;82;21079;-49
2021/05/14 01:23:57;;;;;;;2.90;1.20;;;;;;;19.22;56.56;100722.09;1702958;82;21064;-50
2021/05/14 01:26:26;;;;;;;3.30;1.12;;;;;;;19.21;56.60;100717.74;1708712;82;21076;-49
2021/05/14 01:28:54;;;;;;;4.08;1.70;;;;;;;19.21;56.56;100715.96;1700525;82;21040;-49
2021/05/14 01:31:21;;;;;;;6.55;1.70;;;;;;;19.21;56.56;100708.05;1702809;83;21087;-49
2021/05/14 01:33:48;;;;;;;3.80;1.70;;;;;;;19.22;56.52;100694.40;1717738;82;21572;-50
2021/05/14 01:36:15;;;;;;;3.62;1.70;;;;;;;19.21;56.36;100701.45;1703300;82;21093;-49
2021/05/14 01:38:43;;;;;;;3.40;1.55;;;;;;;19.21;56.23;100701.45;1715987;82;21562;-50
2021/05/14 01:41:09;;;;;;;3.10;1.62;;;;;;;19.21;56.20;100685.63;1706244;82;21096;-49
2021/05/14 01:43:36;;;;;;;4.67;1.30;;;;;;;19.19;56.22;100691.46;1709347;81;21057;-49
2021/05/14 01:46:04;;;;;;;5.83;1.60;;;;;;;19.19;56.25;100707.29;1715909;82;21021;-50
2021/05/14 01:48:31;;;;;;;3.45;1.65;;;;;;;19.17;56.16;100693.34;1702275;82;21618;-50
2021/05/14 01:51:04;;;;;;;5.15;1.90;;;;;;;19.16;56.18;100675.83;1717473;81;21120;-50
2021/05/14 01:53:33;;;;;;;3.67;2.08;;;;;;;19.12;56.21;100672.99;1679378;83;21624;-49
2021/05/14 01:56:00;;;;;;;4.58;2.10;;;;;;;19.09;56.21;100674.47;1717669;82;21554;-50
2021/05/14 01:58:26;;;;;;;2.60;1.62;;;;;;;19.07;56.19;100678.98;1731272;82;21044;-49
2021/05/14 02:00:53;;;;;;;7.08;2.42;;;;;;;19.08;55.92;100667.48;1728338;82;21056;-50
2021/05/14 02:03:20;;;;;;;4.70;2.02;;;;;;;19.10;55.76;100668.73;1705749;82;21083;-50
2021/05/14 02:05:47;;;;;;;5.78;1.90;;;;;;;19.06;55.69;100674.63;1720735;82;21598;-50
2021/05/14 02:08:15;;;;;;;7.55;2.92;;;;;;;19.05;55.73;100677.37;1729418;82;21607;-49
2021/05/14 02:10:42;;;;;;;5.97;2.10;;;;;;;19.01;55.86;100676.70;1724649;82;21053;-50
2021/05/14 02:13:08;;;;;;;6.97;2.45;;;;;;;19.00;56.05;100680.27;1730410;82;21157;-50
2021/05/14 02:15:35;;;;;;;4.35;2.02;;;;;;;18.99;56.22;100688.27;1720207;82;21094;-49
2021/05/14 02:18:02;;;;;;;4.70;2.12;;;;;;;18.98;56.25;100691.37;1708876;82;21076;-50
2021/05/14 02:20:29;;;;;;;5.50;2.17;;;;;;;18.97;56.23;100696.28;1720813;82;21093;-49
2021/05/14 02:22:56;;;;;;;5.85;1.92;;;;;;;18.95;56.22;100694.20;1720468;82;21101;-49
2021/05/14 02:25:24;;;;;;;8.30;1.92;;;;;;;18.95;56.29;100692.88;1670104;83;21072;-49
2021/05/14 02:27:50;;;;;;;5.85;1.75;;;;;;;18.92;56.43;100698.31;1682460;83;21083;-50
2021/05/14 02:30:18;;;;;;;5.28;2.10;;;;;;;18.90;56.66;100700.19;1747451;80;21560;-50
2021/05/14 02:32:46;;;;;;;6.50;2.00;;;;;;;18.93;56.79;100710.58;1776426;79;21028;-49
2021/05/14 02:35:13;;;;;;;5.35;2.20;;;;;;;18.92;56.87;100707.55;1754076;79;21567;-50
2021/05/14 02:37:41;;;;;;;9.45;2.10;;;;;;;18.93;56.97;100702.67;1785731;79;21044;-50
2021/05/14 02:40:10;;;;;;;6.45;2.10;;;;;;;18.96;57.04;100704.28;1778574;79;21090;-50
2021/05/14 02:42:37;;;;;;;4.67;1.80;;;;;;;18.95;57.17;100713.98;1765208;79;21585;-49
2021/05/14 02:45:06;;;;;;;5.78;2.17;;;;;;;18.96;57.27;100705.61;1746347;81;21029;-50
2021/05/14 02:47:33;;;;;;;4.37;1.80;;;;;;;18.93;57.50;100705.30;1719897;82;21557;-49
2021/05/14 02:50:00;;;;;;;4.40;2.00;;;;;;;18.99;57.44;100704.09;1751263;80;21059;-50
2021/05/14 02:52:26;;;;;;;6.70;2.17;;;;;;;19.01;57.47;100703.54;1787696;79;21059;-50
2021/05/14 02:54:54;;;;;;;8.63;2.75;;;;;;;19.04;57.42;100696.29;1745810;82;21080;-49
2021/05/14 02:57:23;;;;;;;6.87;2.15;;;;;;;19.06;57.37;100703.64;1780732;79;21064;-50
2021/05/14 02:59:49;;;;;;;4.15;1.92;;;;;;;19.07;57.33;100713.27;1783896;79;21539;-50
2021/05/14 03:02:16;;;;;;;3.90;1.67;;;;;;;19.06;57.18;100718.15;1780206;79;21049;-50
2021/05/14 03:04:42;;;;;;;6.10;2.05;;;;;;;19.07;57.30;100721.19;1762164;80;21029;-50
2021/05/14 03:07:09;;;;;;;5.40;1.98;;;;;;;19.06;57.36;100731.34;1757453;80;21598;-50
2021/05/14 03:09:36;;;;;;;4.97;1.67;;;;;;;19.07;57.46;100725.14;1771397;79;21052;-50
2021/05/14 03:12:03;;;;;;;4.95;1.82;;;;;;;19.09;57.47;100731.18;1763927;79;21577;-50
2021/05/14 03:14:30;;;;;;;5.50;1.95;;;;;;;19.12;57.51;100730.16;1774856;79;21747;-50
2021/05/14 03:16:59;;;;;;;4.45;1.75;;;;;;;19.14;57.47;100743.65;1769433;79;21127;-50
2021/05/14 03:19:26;;;;;;;2.95;1.80;;;;;;;19.18;57.41;100738.58;1786089;79;21536;-50
2021/05/14 03:21:54;;;;;;;4.47;1.98;;;;;;;19.19;57.43;100737.63;1770825;79;21607;-50
2021/05/14 03:24:21;;;;;;;2.52;1.30;;;;;;;19.21;57.84;100738.38;1766302;79;21546;-49
2021/05/14 03:26:51;;;;;;;4.17;1.75;;;;;;;19.30;58.29;100736.55;1778991;79;21035;-50
2021/05/14 03:29:16;;;;;;;3.77;1.50;;;;;;;19.47;58.50;100733.79;1784605;79;21055;-50
2021/05/14 03:31:43;;;;;;;3.92;2.17;;;;;;;19.70;58.18;100738.20;1781627;80;21107;-52
2021/05/14 03:34:10;;;;;;;2.65;1.62;;;;;;;20.04;57.88;100734.77;1788079;79;21021;-49
2021/05/14 03:36:37;;;;;;;3.10;1.45;;;;;;;20.52;56.88;100734.02;1775363;80;21064;-49
2021/05/14 03:39:08;;;;;;;6.33;1.82;;;;;;;21.04;55.60;100731.93;1749629;81;21064;-50
2021/05/14 03:41:44;;;;;;;6.42;1.65;;;;;;;21.57;54.12;100731.52;1710092;82;21021;-50
2021/05/14 03:44:03;;;;;;;3.65;1.90;;;;;;;21.98;52.65;100738.84;1766248;80;21809;-49
2021/05/14 03:46:33;;;;;;;3.62;1.85;;;;;;;22.27;51.90;100737.67;1784535;79;21591;-49
2021/05/14 03:48:59;;;;;;;2.72;1.45;;;;;;;22.48;51.27;100748.06;1773829;79;21067;-49
2021/05/14 03:51:26;;;;;;;5.55;1.65;;;;;;;22.65;50.49;100749.08;1753116;80;21530;-50
2021/05/14 03:53:53;;;;;;;4.12;1.70;;;;;;;22.73;49.88;100750.34;1764661;80;21043;-50
2021/05/14 03:56:20;;;;;;;5.85;1.70;;;;;;;22.70;49.68;100753.20;1772886;79;21012;-50
2021/05/14 03:58:47;;;;;;;4.17;1.60;;;;;;;22.54;49.84;100747.66;1751083;80;21071;-50
2021/05/14 04:01:15;;;;;;;5.35;1.62;;;;;;;22.36;50.08;100748.11;1791623;79;21032;-49
2021/05/14 04:03:41;;;;;;;3.83;1.70;;;;;;;22.16;50.42;100749.95;1798329;79;21110;-50
2021/05/14 04:06:08;;;;;;;4.17;2.08;;;;;;;21.95;50.77;100754.94;1739358;82;21076;-49
2021/05/14 04:08:35;;;;;;;6.87;1.60;;;;;;;21.77;51.20;100762.32;1793897;79;21587;-49
2021/05/14 04:16:26;;;;;;;2.98;1.85;;;;;;;21.22;52.78;100767.41;1766910;78;21044;-50
2021/05/14 04:18:53;;;;;;;3.55;2.05;;;;;;;21.10;53.15;100769.53;1776457;79;21541;-50
2021/05/14 04:21:19;;;;;;;3.50;1.77;;;;;;;20.98;53.47;100760.08;1766321;79;21083;-49
2021/05/14 04:23:46;;;;;;;4.42;1.90;;;;;;;20.89;53.71;100764.66;1769186;80;21115;-50
2021/05/14 04:26:13;;;;;;;3.72;1.70;;;;;;;20.81;54.09;100764.27;1772151;80;21080;-50
2021/05/14 04:28:40;;;;;;;7.67;1.90;;;;;;;20.75;54.38;100768.63;1765968;79;21052;-49
2021/05/14 04:31:06;;;;;;;4.40;1.70;;;;;;;20.70;54.70;100772.05;1770689;79;21044;-50
2021/05/14 04:33:33;;;;;;;6.97;2.02;;;;;;;20.66;54.79;100775.83;1773974;79;21574;-50
2021/05/14 04:35:59;;;;;;;4.45;1.95;;;;;;;20.64;54.96;100775.08;1768679;79;21052;-50
2021/05/14 04:38:26;;;;;;;3.98;1.90;;;;;;;20.61;55.11;100775.26;1766465;79;21036;-49
2021/05/14 04:40:53;;;;;;;3.77;2.00;;;;;;;20.59;55.30;100785.08;1776079;79;21155;-50
2021/05/14 04:43:21;;;;;;;4.17;1.90;;;;;;;20.54;55.47;100784.53;1776789;79;21044;-50
2021/05/14 04:45:48;;;;;;;3.70;2.00;;;;;;;20.52;55.73;100797.47;1753547;80;21075;-50
2021/05/14 04:48:14;;;;;;;4.62;2.05;;;;;;;20.49;56.00;100797.17;1784694;79;21008;-50
2021/05/14 04:50:41;;;;;;;3.95;2.10;;;;;;;20.49;56.19;100793.67;1789413;79;21036;-49
2021/05/14 04:53:10;;;;;;;8.68;2.37;;;;;;;20.47;56.25;100799.06;1784405;79;21591;-49
2021/05/14 04:55:37;;;;;;;5.42;2.10;;;;;;;20.47;56.40;100804.35;1779755;79;21013;-50
2021/05/14 04:58:04;;;;;;;4.05;2.05;;;;;;;20.48;56.63;100800.78;1759213;80;21055;-49
2021/05/14 05:00:31;;;;;;;3.15;1.92;;;;;;;20.50;56.86;100809.47;1778780;79;21629;-49
2021/05/14 05:02:58;;;;;;;3.58;2.08;;;;;;;20.59;56.73;100802.27;1762335;79;21068;-49
2021/05/14 05:05:25;;;;;;;5.12;2.45;;;;;;;20.67;56.76;100799.98;1777241;79;21609;-49
2021/05/14 05:07:51;;;;;;;4.75;2.10;;;;;;;20.77;56.70;100799.78;1770286;79;21049;-50
2021/05/14 05:10:20;;;;;;;6.08;2.17;;;;;;;20.90;56.37;100798.08;1778126;79;21096;-50
2021/05/14 05:12:47;;;;;;;5.35;2.30;;;;;;;20.97;56.10;100798.08;1781115;79;21043;-50
2021/05/14 05:15:14;;;;;;;7.20;2.10;;;;;;;21.02;55.97;100803.94;1777167;79;21122;-51
2021/05/14 05:17:41;;;;;;;3.85;2.20;;;;;;;21.19;55.43;100811.26;1783313;79;21633;-51
2021/05/14 05:20:10;;;;;;;7.30;2.33;;;;;;;21.33;55.06;100815.21;1772198;79;21039;-50
2021/05/14 05:22:37;;;;;;;4.70;2.42;;;;;;;21.47;54.48;100819.13;1782892;78;21042;-50
2021/05/14 05:25:05;;;;;;;6.42;2.35;;;;;;;21.61;54.15;100825.68;1771463;79;21006;-50
2021/05/14 05:27:32;;;;;;;6.17;2.22;;;;;;;21.75;53.88;100829.58;1777065;79;21591;-50
2021/05/14 05:29:58;;;;;;;4.45;2.20;;;;;;;21.99;53.69;100836.41;1775540;79;21650;-50
2021/05/14 05:32:25;;;;;;;5.17;1.95;;;;;;;22.34;52.99;100834.86;1745884;82;21036;-49
2021/05/14 05:34:52;;;;;;;3.85;1.90;;;;;;;22.78;52.10;100835.73;1724982;82;21128;-50
2021/05/14 05:37:21;;;;;;;7.55;2.55;;;;;;;23.28;51.23;100835.62;1729580;80;21087;-50
2021/05/14 05:39:47;;;;;;;7.80;2.30;;;;;;;23.87;49.96;100841.83;1718731;82;21664;-51
2021/05/14 05:42:14;;;;;;;4.78;2.15;;;;;;;24.48;48.49;100834.04;1710384;82;21561;-50
2021/05/14 05:44:41;;;;;;;6.22;2.42;;;;;;;25.04;47.11;100831.73;1785128;79;21526;-50
2021/05/14 05:47:07;;;;;;;6.67;2.27;;;;;;;25.54;46.03;100835.16;1721640;82;21034;-50
2021/05/14 05:49:35;;;;;;;6.10;2.20;;;;;;;26.04;44.89;100850.09;1781304;79;21080;-49
2021/05/14 05:52:02;;;;;;;5.95;2.50;;;;;;;26.43;43.87;100844.05;1775602;80;21618;-47
2021/05/14 05:54:28;;;;;;;6.45;2.33;;;;;;;26.80;42.93;100850.59;1767516;79;21611;-47
2021/05/14 05:56:57;;;;;;;3.65;1.75;;;;;;;27.10;41.93;100857.22;1776218;79;21559;-48
2021/05/14 05:59:24;;;;;;;4.83;1.95;;;;;;;27.27;41.40;100847.22;1774915;79;21060;-47
2021/05/14 06:01:51;;;;;;;3.50;1.80;;;;;;;27.37;41.10;100854.80;1770251;79;21108;-47
2021/05/14 06:04:17;;;;;;;3.85;1.98;;;;;;;27.38;40.72;100859.17;1781953;79;21049;-48
2021/05/14 06:06:46;;;;;;;5.42;2.52;;;;;;;27.43;40.49;100853.91;1769228;79;21734;-48
2021/05/14 06:09:13;;;;;;;4.30;1.62;;;;;;;27.31;40.57;100856.65;1768644;79;21071;-48
2021/05/14 06:11:42;;;;;;;4.33;2.20;;;;;;;27.06;40.75;100846.45;1737504;82;21071;-49
2021/05/14 06:14:08;;;;;;;5.65;2.30;;;;;;;26.82;41.36;100857.13;1710348;82;21060;-48
2021/05/14 06:16:35;;;;;;;5.78;2.30;;;;;;;26.64;41.60;100859.55;1780374;79;21384;-48
2021/05/14 06:21:47;;;;;;;3.55;1.82;;;;;;;26.53;41.90;100851.63;1784489;79;21084;-48
2021/05/14 06:24:13;;;;;;;;;;;;;;;26.52;42.18;100853.95;1793125;79;21122;-49
2021/05/14 06:26:42;;;;;;;5.40;2.22;;;;;;;26.61;42.12;100859.80;1770122;79;20494;-48
2021/05/14 06:29:08;;;;;;;4.55;2.10;;;;;;;26.71;41.95;100856.69;1783362;79;21030;-48
2021/05/14 06:31:35;;;;;;;6.47;2.40;;;;;;;26.87;41.85;100849.09;1776677;79;21028;-49
2021/05/14 06:34:02;;;;;;;5.08;1.95;;;;;;;27.00;41.48;100852.34;1776793;79;21543;-48
2021/05/14 06:36:29;;;;;;;7.00;2.60;;;;;;;27.07;41.05;100856.17;1728530;82;21040;-49
2021/05/14 06:38:56;;;;;;;3.90;1.90;;;;;;;27.02;41.09;100865.07;1788420;79;21037;-49
2021/05/14 06:41:23;;;;;;;5.53;2.42;;;;;;;26.91;41.14;100874.54;1772764;79;21128;-49
2021/05/14 06:43:50;;;;;;;5.05;2.20;;;;;;;26.76;41.41;100867.86;1767159;79;21130;-48
2021/05/14 06:46:16;;;;;;;4.83;2.17;;;;;;;26.64;41.52;100863.56;1771017;80;21104;-49
2021/05/14 06:48:44;;;;;;;7.78;2.30;;;;;;;26.44;41.90;100864.44;1769157;80;21097;-49
2021/05/14 06:51:11;;;;;;;6.33;2.47;;;;;;;26.44;41.90;100864.44;1767260;79;21575;-49
2021/05/14 06:53:38;;;;;;;4.42;2.02;;;;;;;26.35;42.02;100866.07;1776242;79;21633;-49
2021/05/14 06:56:05;;;;;;;5.72;2.12;;;;;;;26.33;41.93;100867.17;1779244;79;21080;-49
2021/05/14 06:58:33;;;;;;;6.30;2.67;;;;;;;26.35;41.97;100869.22;1774916;80;21538;-49
2021/05/14 07:01:00;;;;;;;4.72;2.17;;;;;;;26.51;41.53;100873.59;1768765;79;21041;-49
2021/05/14 07:03:27;;;;;;;3.00;2.08;;;;;;;26.76;41.01;100879.88;1754954;80;21028;-49
2021/05/14 07:05:55;;;;;;;3.10;1.85;;;;;;;27.02;40.40;100878.91;1761017;80;21060;-49
2021/05/14 07:08:21;;;;;;;4.12;2.00;;;;;;;27.29;39.98;100879.99;1773309;79;21119;-48
2021/05/14 07:10:48;;;;;;;5.00;2.33;;;;;;;27.55;39.37;100876.84;1764755;80;21079;-49
2021/05/14 07:13:15;;;;;;;4.50;1.80;;;;;;;27.73;39.05;100876.02;1771392;79;21467;-49
2021/05/14 07:15:42;;;;;;;7.53;2.37;;;;;;;27.91;38.52;100882.35;1775895;79;21068;-49
2021/05/14 07:18:09;;;;;;;4.05;1.95;;;;;;;28.11;38.17;100883.20;1763851;79;21591;-49
2021/05/14 07:20:36;;;;;;;9.43;2.90;;;;;;;28.30;37.71;100885.87;1748293;79;21052;-49
2021/05/14 07:23:03;;;;;;;6.25;2.08;;;;;;;28.47;37.26;100889.16;1778898;79;21032;-49
2021/05/14 07:25:29;;;;;;;5.30;2.00;;;;;;;28.60;36.80;100879.50;1764625;80;21052;-49
2021/05/14 07:27:57;;;;;;;2.33;1.80;;;;;;;28.67;36.53;100876.09;1773703;80;21080;-49
2021/05/14 07:30:23;;;;;;;5.42;1.85;;;;;;;28.69;36.30;100884.81;1767627;79;21630;-48
2021/05/14 07:32:51;;;;;;;2.77;1.87;;;;;;;28.64;36.30;100880.90;1777242;79;21123;-49
2021/05/14 07:35:17;;;;;;;4.05;2.10;;;;;;;28.53;36.23;100888.57;1761346;80;21040;-49
2021/05/14 07:37:44;;;;;;;3.55;1.92;;;;;;;28.34;36.37;100886.45;1790352;79;21033;-49
2021/05/14 07:40:12;;;;;;;4.90;2.00;;;;;;;28.07;36.76;100892.50;1798536;79;21060;-49
2021/05/14 07:42:39;;;;;;;4.65;1.85;;;;;;;27.73;37.23;100899.23;1782772;79;21154;-48
2021/05/14 07:45:07;;;;;;;3.47;1.95;;;;;;;27.37;37.79;100895.36;1789788;79;21100;-49
2021/05/14 07:47:34;;;;;;;2.98;1.87;;;;;;;27.01;38.38;100904.80;1783317;79;20992;-48
2021/05/14 07:50:01;;;;;;;5.22;1.92;;;;;;;26.65;39.04;100899.94;1756876;80;21079;-48
2021/05/14 07:52:28;;;;;;;3.85;2.00;;;;;;;25.69;41.01;100892.55;1777459;79;21036;-49
2021/05/14 07:54:55;;;;;;;3.72;1.77;;;;;;;25.69;41.01;100892.55;1770691;79;21020;-48
2021/05/14 07:57:22;;;;;;;2.42;1.62;;;;;;;25.35;41.65;100897.54;1772523;79;21048;-49
2021/05/14 07:59:48;;;;;;;4.15;1.70;;;;;;;25.10;42.16;100897.81;1763316;80;21056;-48
2021/05/14 08:02:15;;;;;;;5.75;2.30;;;;;;;24.91;42.63;100905.58;1788213;79;21036;-47
2021/05/14 08:04:43;;;;;;;4.70;1.92;;;;;;;24.79;43.03;100906.55;1782189;79;21060;-48
2021/05/14 08:07:09;;;;;;;2.50;1.92;;;;;;;24.66;43.27;100903.95;1768798;79;21070;-49
2021/05/14 08:09:36;;;;;;;5.85;2.10;;;;;;;24.57;43.60;100898.48;1778089;79;21056;-49
2021/05/14 08:12:06;;;;;;;2.37;1.70;;;;;;;24.48;43.97;100896.55;1780975;79;21060;-50
2021/05/14 08:14:33;;;;;;;3.45;2.05;;;;;;;24.42;44.24;100899.17;1758758;80;21534;-50
2021/05/14 08:17:00;;;;;;;5.65;2.40;;;;;;;24.36;44.53;100902.81;1766267;79;21063;-50
2021/05/14 08:19:26;;;;;;;5.33;2.05;;;;;;;24.32;44.68;100900.03;1779209;79;21087;-49
2021/05/14 08:21:53;;;;;;;3.27;1.70;;;;;;;24.25;44.89;100891.16;1762519;79;21531;-50
2021/05/14 08:24:20;;;;;;;5.08;2.60;;;;;;;24.21;45.00;100901.66;1764122;79;21044;-49
2021/05/14 08:26:46;;;;;;;4.83;2.08;;;;;;;24.15;45.29;100906.12;1771667;80;21554;-49
2021/05/14 08:29:13;;;;;;;6.10;1.90;;;;;;;24.08;45.77;100902.72;1720595;82;21072;-49
2021/05/14 08:31:40;;;;;;;3.67;1.90;;;;;;;24.01;46.02;100908.94;1781835;80;21054;-49
2021/05/14 08:34:08;;;;;;;5.60;1.87;;;;;;;23.96;46.30;100911.11;1768255;79;21536;-49
2021/05/14 08:36:34;;;;;;;4.62;1.80;;;;;;;23.92;46.44;100911.45;1771477;79;21017;-50
2021/05/14 08:39:02;;;;;;;3.02;2.12;;;;;;;23.86;46.64;100908.78;1768194;80;21047;-49
2021/05/14 08:41:28;;;;;;;1.90;1.70;;;;;;;23.81;46.87;100912.71;1721862;81;21049;-49
2021/05/14 08:43:55;;;;;;;2.83;1.70;;;;;;;23.78;47.06;100927.06;1700203;82;21608;-49
2021/05/14 08:46:25;;;;;;;5.58;1.90;;;;;;;23.75;47.26;100925.98;1775900;79;21038;-49
2021/05/14 08:48:54;;;;;;;3.72;2.10;;;;;;;23.74;47.45;100926.92;1766606;79;21068;-50
2021/05/14 08:51:27;;;;;;;2.83;1.90;;;;;;;23.75;47.67;100925.98;1771577;79;21049;-50
2021/05/14 08:53:56;;;;;;;2.30;1.70;;;;;;;23.77;47.66;100929.38;1772971;79;21100;-50
2021/05/14 08:56:23;;;;;;;6.55;2.15;;;;;;;23.80;47.67;100925.14;1745304;80;21036;-50
2021/05/14 08:58:49;;;;;;;4.17;1.90;;;;;;;23.83;47.81;100927.59;1729932;81;21673;-49
2021/05/14 09:01:16;;;;;;;6.22;2.08;;;;;;;23.86;47.72;100930.03;1740186;80;21045;-49
2021/05/14 09:04:02;;;;;;;4.45;2.10;;;;;;;23.86;47.87;100927.85;1741989;81;21073;-50
2021/05/14 09:06:31;;;;;;;5.42;2.83;;;;;;;23.85;48.13;100925.66;1710619;82;21056;-50
2021/05/14 09:09:01;;;;;;;4.45;2.60;;;;;;;23.86;48.24;100923.39;1710889;82;21096;-49
2021/05/14 09:11:48;;;;;;;4.10;2.33;;;;;;;23.84;48.42;100922.66;1741002;80;21004;-49
2021/05/14 09:14:35;;;;;;;4.67;2.17;;;;;;;23.83;48.58;100921.42;1656698;83;21065;-49
2021/05/14 09:17:11;;;;;;;5.33;2.65;;;;;;;23.82;48.75;100917.91;1649254;85;21089;-50
2021/05/14 09:19:42;;;;;;;4.92;2.42;;;;;;;23.83;48.82;100911.64;1649689;85;21075;-49
2021/05/14 09:22:20;;;;;;;5.08;2.10;;;;;;;23.86;48.70;100911.91;1619993;86;21219;-50
2021/05/14 09:24:58;;;;;;;4.03;2.10;;;;;;;23.86;48.62;100918.08;1628723;86;21108;-49
2021/05/14 09:27:32;;;;;;;6.55;2.52;;;;;;;23.85;48.66;100919.02;1620372;86;21071;-49
2021/05/14 09:30:01;;;;;;;4.10;2.27;;;;;;;23.84;48.72;100918.67;1620160;86;21143;-49
2021/05/14 09:32:32;;;;;;;5.62;2.30;;;;;;;23.84;48.78;100919.14;1661926;84;21108;-49
2021/05/14 09:35:01;;;;;;;4.75;2.40;;;;;;;23.84;48.79;100921.80;1628211;87;21102;-49
2021/05/14 09:37:28;;;;;;;5.15;2.50;;;;;;;23.85;48.80;100927.47;1628037;86;21585;-49
2021/05/14 09:40:22;;;;;;;5.03;2.30;;;;;;;24.06;48.28;100924.11;1632194;86;21059;-51
2021/05/14 09:42:58;;;;;;;3.77;2.00;;;;;;;24.23;47.78;100926.33;1627249;87;21094;-50
2021/05/14 09:45:26;;;;;;;5.15;2.27;;;;;;;24.25;47.71;100925.73;1624991;86;21663;-48
2021/05/14 09:48:14;;;;;;;3.55;1.85;;;;;;;24.25;47.71;100923.06;1628094;87;21218;-49
2021/05/14 09:50:35;;;;;;;4.08;1.98;;;;;;;24.25;47.94;100916.93;1624699;87;21117;-49
2021/05/14 09:53:14;;;;;;;6.15;2.08;;;;;;;24.28;48.02;100918.52;1630720;86;21038;-50
2021/05/14 09:55:58;;;;;;;3.87;2.10;;;;;;;24.32;48.06;100918.64;1629982;86;21067;-49
2021/05/14 10:00:48;;;;;;;3.95;2.30;;;;;;;24.35;47.99;100917.06;1521117;92;21159;-49
2021/05/14 10:03:18;;;;;;;6.15;2.27;;;;;;;24.34;48.11;100911.40;1494357;93;21098;-50
2021/05/14 10:05:46;;;;;;;4.80;2.25;;;;;;;24.32;48.20;100912.00;1474507;95;21248;-49
2021/05/14 10:08:15;;;;;;;5.05;2.60;;;;;;;24.30;48.12;100908.61;1460050;97;21120;-50
2021/05/14 10:10:42;;;;;;;2.25;1.80;;;;;;;24.28;48.21;100910.53;1461348;95;21158;-50
2021/05/14 10:13:10;;;;;;;4.15;2.00;;;;;;;24.26;48.30;100913.29;1461692;97;21645;-50
2021/05/14 10:15:38;;;;;;;5.17;2.20;;;;;;;24.27;48.29;100920.79;1457389;96;21229;-50
2021/05/14 10:18:07;;;;;;;4.97;2.33;;;;;;;24.28;48.27;100914.52;1468311;96;21123;-49
2021/05/14 10:20:36;;;;;;;7.33;2.37;;;;;;;24.30;48.21;100913.92;1527635;93;21187;-50
2021/05/14 10:23:04;;;;;;;7.75;2.72;;;;;;;24.34;48.15;100920.70;1522300;93;21555;-50
2021/05/14 10:25:48;;;;;;;4.90;1.90;;;;;;;24.34;48.14;100918.87;1526554;93;21674;-49
2021/05/14 10:28:26;;;;;;;4.95;2.33;;;;;;;24.29;48.29;100925.52;1497742;95;21132;-49
2021/05/14 10:31:08;;;;;;;4.17;2.12;;;;;;;24.09;48.76;100923.86;1530962;92;21621;-49
2021/05/14 10:33:56;;;;;;;5.17;2.80;;;;;;;24.08;48.87;100923.52;1603092;89;21076;-49
2021/05/14 10:36:32;;;;;;;4.28;2.12;;;;;;;24.08;48.92;100918.20;1586932;89;21087;-49
2021/05/14 10:39:10;;;;;;;4.50;2.12;;;;;;;24.06;48.97;100916.13;1600223;89;21140;-49
2021/05/14 10:41:55;;;;;;;5.72;2.42;;;;;;;24.03;49.02;100925.66;1602131;89;21575;-50
2021/05/14 10:44:52;;;;;;;4.55;2.33;;;;;;;23.99;49.16;100918.84;1583072;89;21083;-49
2021/05/14 10:47:27;;;;;;;4.53;2.33;;;;;;;23.96;49.35;100919.09;1575991;90;21152;-49
2021/05/14 10:50:05;;;;;;;6.42;2.40;;;;;;;24.22;48.79;100923.31;1582907;91;21123;-50
2021/05/14 10:52:33;;;;;;;5.00;2.60;;;;;;;24.23;48.79;100926.33;1572302;90;21110;-50
2021/05/14 10:55:00;;;;;;;4.10;2.35;;;;;;;24.23;48.80;100921.01;1579282;90;21083;-49
2021/05/14 10:57:44;;;;;;;5.20;2.90;;;;;;;24.22;48.86;100924.65;1585151;90;21139;-49
2021/05/14 11:00:32;;;;;;;5.50;2.17;;;;;;;24.24;48.84;100921.39;1605467;88;21639;-48
2021/05/14 11:03:14;;;;;;;4.40;2.20;;;;;;;24.24;48.87;100924.05;1650664;84;21586;-50
2021/05/14 11:05:47;;;;;;;3.00;2.25;;;;;;;24.27;48.91;100930.09;1675594;83;21654;-49
2021/05/14 11:08:39;;;;;;;5.50;2.17;;;;;;;24.26;48.95;100934.56;1630901;85;21093;-50
2021/05/14 11:11:09;;;;;;;;;;;;;;;24.28;49.06;100943.27;1626898;85;21081;-49
2021/05/14 11:13:45;;;;;;;3.60;2.58;;;;;;;24.29;49.07;100941.47;1641304;87;20185;-49
2021/05/14 11:16:35;;;;;;;5.10;2.45;;;;;;;24.30;49.12;100938.69;1651417;86;21745;-49
2021/05/14 11:19:19;;;;;;;6.05;2.58;;;;;;;24.33;49.10;100938.94;1647452;85;21559;-49
2021/05/14 11:22:08;;;;;;;6.85;2.92;;;;;;;24.35;48.99;100946.32;1650493;85;21119;-48
2021/05/14 11:24:43;;;;;;;4.08;2.52;;;;;;;24.36;48.92;100942.72;1666715;85;21078;-49
2021/05/14 11:27:17;;;;;;;7.20;3.17;;;;;;;24.30;49.11;100935.20;1662732;85;21627;-48
2021/05/14 11:29:55;;;;;;;4.70;2.20;;;;;;;24.28;49.31;100931.81;1651863;85;21628;-49
2021/05/14 11:32:34;;;;;;;4.17;2.65;;;;;;;24.30;49.38;100933.88;1664067;85;21586;-49
2021/05/14 11:35:18;;;;;;;3.22;2.08;;;;;;;24.34;49.42;100930.02;1661513;84;21766;-48
2021/05/14 11:37:53;;;;;;;4.47;2.27;;;;;;;24.37;49.33;100928.44;1640311;86;21709;-49
2021/05/14 11:40:25;;;;;;;3.05;2.37;;;;;;;24.43;49.22;100927.96;1622029;86;21090;-49
2021/05/14 11:43:00;;;;;;;5.00;2.40;;;;;;;24.49;49.04;100923.50;1621961;87;21684;-49
2021/05/14 11:45:31;;;;;;;5.08;2.52;;;;;;;24.52;48.94;100925.47;1625523;87;21139;-49
2021/05/14 11:48:11;;;;;;;4.80;2.10;;;;;;;24.54;48.80;100916.88;1590172;88;21135;-50